AirportContent of TAF forecast
LYBETAF LYBE 221700Z 2218/2318 25006KT 7000 NSC TX03/2313Z TNM02/2306Z BECMG 2219/2221 32010KT BECMG 2220/2222 BKN015 BKN027 BECMG 2308/2310 03005KT SCT020=
LYBTTAF LYBT 221700Z 2218/2318 30008KT 6000 SCT010 BKN027 TX04/2313Z TNM04/2306Z TEMPO 2220/2306 BKN010 BKN027=
LYKVTAF LYKV 221700Z 2218/2318 17004KT 6000 SCT040 TX05/2313Z TNM06/2306Z TEMPO 2218/2221 3000 BR BECMG 2221/2223 31010KT TEMPO 2303/2307 3000 BR BKN013 BKN025=
LYNITAF COR LYNI 221700Z 2218/2318 09004KT 6000 NSC TX05/2313Z TNM05/2305Z TEMPO 2218/2222 4000 BR BECMG 2222/2224 32018G30KT BECMG 2303/2305 33008KT TEMPO 2305/2307 3000 BR BKN013 BKN027=
LYVRTAF LYVR 221700Z 2218/2318 35004KT CAVOK TX02/2313Z TNM03/2306Z BECMG 2219/2221 BKN010 BKN025 BECMG 2310/2312 SCT015=
LYUZTAF LYUZ 221700Z 2218/2318 24006KT CAVOK TX02/2313Z TNM06/2306Z TEMPO 2300/2308 30012KT 0200 FZFG VV002=
LYPGTAF LYPG 221700Z 2218/2318 VRB02KT CAVOK TX13/2313Z TNM02/2306Z PROB30 TEMPO 2303/2307 4000 BR BECMG 2307/2309 01012KT TEMPO 2307/2315 03015G25KT=
LYTVTAF LYTV 221700Z 2218/2318 28006KT CAVOK TX13/2313Z TN00/2304Z BECMG 2222/2224 02014KT TEMPO 2302/2312 02015G25KT=

Data loaded: 2020-01-22 19:55:02 UTC

METAR, TAF, AIRMET, GAMET, SIGMET

Important note: MET information on these web pages are informative and restricted to aeronautical users, must not be used for any commercial purpose, and do not replace flight documentation.